createdAt,value
2023-01-27T00:01:35.892Z,20.70
2023-01-27T00:04:05.546Z,19.67
2023-01-27T00:06:36.833Z,20.85
2023-01-27T00:09:05.398Z,21.35
2023-01-27T00:11:51.276Z,29.38
2023-01-27T00:14:19.921Z,19.48
2023-01-27T00:16:48.407Z,20.40
2023-01-27T00:19:19.832Z,23.50
2023-01-27T00:22:05.715Z,24.50
2023-01-27T00:24:37.336Z,26.33
2023-01-27T00:27:08.903Z,18.67
2023-01-27T00:29:40.859Z,20.95
2023-01-27T00:32:27.010Z,28.35
2023-01-27T00:34:56.618Z,23.13
2023-01-27T00:37:25.245Z,25.45
2023-01-27T00:39:53.804Z,25.05
2023-01-27T00:42:22.377Z,27.42
2023-01-27T00:45:05.427Z,24.20
2023-01-27T00:47:33.899Z,32.38
2023-01-27T00:50:03.482Z,33.38
2023-01-27T00:52:32.076Z,27.88
2023-01-27T00:55:00.615Z,20.85
2023-01-27T00:57:29.203Z,21.75
2023-01-27T00:59:59.728Z,23.65
2023-01-27T01:02:28.518Z,22.75
2023-01-27T01:04:57.075Z,21.05
2023-01-27T01:07:26.741Z,22.77
2023-01-27T01:09:56.211Z,21.85
2023-01-27T01:12:24.613Z,28.73
2023-01-27T01:14:53.099Z,22.73
2023-01-27T01:17:21.696Z,24.73
2023-01-27T01:19:50.532Z,25.15
2023-01-27T01:22:19.091Z,26.98
2023-01-27T01:24:48.715Z,28.27
2023-01-27T01:27:17.327Z,24.63
2023-01-27T01:29:45.926Z,25.58
2023-01-27T01:32:14.679Z,26.73
2023-01-27T01:34:44.159Z,23.40
2023-01-27T01:37:15.772Z,21.98
2023-01-27T01:39:44.466Z,26.45
2023-01-27T01:42:14.038Z,24.83
2023-01-27T01:44:45.747Z,25.38
2023-01-27T01:47:17.682Z,28.40
2023-01-27T01:49:48.136Z,25.40
2023-01-27T01:52:21.965Z,19.90
2023-01-27T01:54:54.701Z,23.27
2023-01-27T01:57:32.907Z,28.45
2023-01-27T02:00:07.753Z,35.67
2023-01-27T02:02:49.583Z,23.92
2023-01-27T02:05:24.480Z,28.92
2023-01-27T02:07:59.812Z,34.28
2023-01-27T02:10:28.447Z,30.07
2023-01-27T02:12:58.000Z,23.23
2023-01-27T02:15:26.739Z,25.60
2023-01-27T02:17:55.260Z,20.90
2023-01-27T02:20:32.046Z,22.42
2023-01-27T02:23:11.721Z,32.15
2023-01-27T02:25:53.998Z,30.63
2023-01-27T02:28:22.676Z,30.65
2023-01-27T02:30:51.304Z,29.25
2023-01-27T02:33:19.789Z,24.73
2023-01-27T02:35:57.499Z,27.08
2023-01-27T02:38:28.390Z,32.67
2023-01-27T02:41:03.459Z,32.05
2023-01-27T02:43:32.094Z,25.88
2023-01-27T02:46:00.650Z,26.15
2023-01-27T02:48:29.291Z,31.38
2023-01-27T02:50:59.928Z,22.88
2023-01-27T02:53:30.627Z,25.95
2023-01-27T02:56:00.250Z,23.60
2023-01-27T02:58:28.764Z,28.35
2023-01-27T03:01:02.712Z,30.65
2023-01-27T03:03:31.342Z,26.77
2023-01-27T03:06:00.657Z,23.02
2023-01-27T03:08:29.552Z,28.73
2023-01-27T03:10:59.393Z,21.58
2023-01-27T03:13:29.850Z,26.92
2023-01-27T03:16:17.819Z,32.42
2023-01-27T03:18:47.421Z,24.00
2023-01-27T03:21:17.277Z,25.38
2023-01-27T03:23:49.022Z,26.73
2023-01-27T03:26:23.229Z,23.95
2023-01-27T03:29:10.447Z,27.70
2023-01-27T03:31:42.399Z,28.20
2023-01-27T03:34:12.004Z,26.60
2023-01-27T03:37:07.007Z,28.00
2023-01-27T03:39:53.465Z,28.95
2023-01-27T03:42:40.881Z,30.45
2023-01-27T03:45:28.640Z,22.25
2023-01-27T03:47:57.189Z,29.52
2023-01-27T03:50:37.486Z,27.15
2023-01-27T03:53:07.056Z,31.80
2023-01-27T03:55:39.551Z,30.08
2023-01-27T03:58:21.126Z,35.00
2023-01-27T04:00:52.914Z,27.02
2023-01-27T04:03:40.798Z,30.77
2023-01-27T04:06:29.298Z,23.27
2023-01-27T04:08:58.711Z,26.20
2023-01-27T04:11:44.974Z,26.48
2023-01-27T04:14:14.805Z,22.25
2023-01-27T04:16:43.419Z,32.58
2023-01-27T04:19:13.359Z,27.10
2023-01-27T04:21:42.242Z,26.20
2023-01-27T04:24:22.451Z,29.00
2023-01-27T04:26:55.313Z,25.30
2023-01-27T04:29:27.899Z,27.27
2023-01-27T04:31:58.666Z,30.85
2023-01-27T04:34:28.345Z,23.20
2023-01-27T04:36:57.684Z,35.03
2023-01-27T04:39:26.661Z,25.48
2023-01-27T04:41:56.538Z,24.25
2023-01-27T04:44:26.481Z,25.00
2023-01-27T04:46:55.754Z,32.78
2023-01-27T04:49:26.588Z,21.75
2023-01-27T04:51:55.224Z,31.63
2023-01-27T04:54:23.908Z,38.25
2023-01-27T04:57:00.456Z,36.25
2023-01-27T04:59:30.092Z,32.53
2023-01-27T05:01:59.213Z,31.00
2023-01-27T05:04:27.815Z,24.02
2023-01-27T05:06:56.107Z,23.00
2023-01-27T05:09:25.014Z,30.00
2023-01-27T05:11:53.561Z,28.85
2023-01-27T05:14:23.459Z,27.83
2023-01-27T05:16:53.288Z,28.88
2023-01-27T05:19:21.792Z,25.52
2023-01-27T05:21:50.286Z,22.85
2023-01-27T05:24:18.887Z,24.77
2023-01-27T05:26:47.584Z,21.25
2023-01-27T05:29:15.849Z,21.60
2023-01-27T05:31:44.429Z,25.55
2023-01-27T05:34:14.028Z,23.17
2023-01-27T05:36:42.261Z,23.13
2023-01-27T05:39:12.513Z,22.38
2023-01-27T05:41:41.089Z,29.23
2023-01-27T05:44:12.557Z,21.55
2023-01-27T05:46:42.539Z,22.67
2023-01-27T05:49:10.881Z,21.95
2023-01-27T05:51:41.664Z,24.42
2023-01-27T05:54:10.563Z,26.08
2023-01-27T05:56:39.223Z,23.10
2023-01-27T05:59:08.351Z,20.60
2023-01-27T06:01:37.547Z,21.63
2023-01-27T06:04:06.553Z,18.13
2023-01-27T06:06:35.411Z,22.33
2023-01-27T06:09:05.509Z,19.88
2023-01-27T06:11:34.036Z,21.60
2023-01-27T06:14:02.235Z,22.23
2023-01-27T06:16:30.762Z,27.17
2023-01-27T06:18:59.728Z,28.17
2023-01-27T06:21:28.301Z,17.15
2023-01-27T06:23:58.041Z,20.15
2023-01-27T06:26:27.719Z,27.83
2023-01-27T06:28:58.215Z,19.50
2023-01-27T06:31:27.467Z,19.23
2023-01-27T06:33:56.077Z,24.92
2023-01-27T06:36:24.882Z,26.33
2023-01-27T06:38:53.485Z,32.72
2023-01-27T06:41:22.200Z,38.85
2023-01-27T06:43:51.792Z,31.63
2023-01-27T06:46:20.029Z,24.42
2023-01-27T06:48:48.601Z,20.77
2023-01-27T06:51:17.596Z,20.38
2023-01-27T06:53:46.130Z,27.63
2023-01-27T06:56:16.471Z,20.17
2023-01-27T06:58:45.864Z,17.88
2023-01-27T07:01:15.506Z,18.63
2023-01-27T07:03:45.117Z,23.15
2023-01-27T07:06:15.073Z,21.45
2023-01-27T07:08:45.806Z,21.45
2023-01-27T07:11:14.324Z,18.83
2023-01-27T07:13:42.820Z,17.25
2023-01-27T07:16:11.352Z,21.52
2023-01-27T07:18:40.931Z,19.98
2023-01-27T07:21:09.153Z,19.40
2023-01-27T07:23:37.360Z,17.25
2023-01-27T07:26:19.273Z,20.85
2023-01-27T07:28:53.279Z,25.15
2023-01-27T07:31:21.850Z,21.15
2023-01-27T07:33:51.586Z,20.67
2023-01-27T07:36:20.138Z,17.60
2023-01-27T07:38:52.002Z,11.25
2023-01-27T07:41:22.879Z,19.40
2023-01-27T07:43:52.442Z,12.07
2023-01-27T07:46:21.118Z,21.63
2023-01-27T07:48:51.011Z,19.88
2023-01-27T07:51:19.724Z,26.27
2023-01-27T07:53:47.992Z,27.58
2023-01-27T07:56:16.236Z,16.38
2023-01-27T07:58:44.669Z,20.52
2023-01-27T08:01:14.158Z,19.60
2023-01-27T08:03:42.673Z,17.83
2023-01-27T08:06:14.078Z,25.40
2023-01-27T08:08:42.721Z,20.80
2023-01-27T08:11:15.215Z,31.00
2023-01-27T08:13:43.923Z,24.20
2023-01-27T08:16:15.207Z,20.08
2023-01-27T08:18:43.956Z,18.48
2023-01-27T08:21:15.005Z,19.08
2023-01-27T08:23:43.298Z,15.02
2023-01-27T08:26:11.538Z,19.95
2023-01-27T08:28:41.401Z,13.82
2023-01-27T08:31:12.314Z,13.82
2023-01-27T08:33:42.557Z,19.58
2023-01-27T08:36:15.414Z,15.65
2023-01-27T08:38:45.325Z,16.10
2023-01-27T08:41:16.997Z,11.93
2023-01-27T08:43:46.132Z,16.60
2023-01-27T08:46:15.451Z,10.98
2023-01-27T08:48:44.392Z,16.42
2023-01-27T08:51:15.409Z,14.23
2023-01-27T08:53:44.184Z,20.50
2023-01-27T08:56:15.785Z,18.63
2023-01-27T08:58:47.236Z,13.35
2023-01-27T09:01:17.067Z,16.38
2023-01-27T09:03:45.766Z,15.35
2023-01-27T09:06:16.930Z,13.20
2023-01-27T09:09:06.076Z,20.77
2023-01-27T09:11:34.782Z,23.33
2023-01-27T09:14:03.011Z,16.65
2023-01-27T09:16:31.584Z,14.77
2023-01-27T09:19:00.171Z,17.15
2023-01-27T09:21:29.902Z,16.02
2023-01-27T09:23:59.081Z,18.83
2023-01-27T09:26:27.404Z,17.08
2023-01-27T09:28:55.891Z,19.25
2023-01-27T09:31:24.560Z,14.57
2023-01-27T09:33:53.182Z,14.30
2023-01-27T09:36:23.035Z,14.73
2023-01-27T09:38:59.857Z,16.17
2023-01-27T09:42:17.260Z,11.63
2023-01-27T09:45:30.967Z,10.07
2023-01-27T09:48:24.398Z,10.82
2023-01-27T09:51:03.275Z,15.82
2023-01-27T09:53:59.397Z,12.38
2023-01-27T09:56:41.269Z,16.75
2023-01-27T09:59:31.759Z,12.38
2023-01-27T10:02:11.648Z,15.02
2023-01-27T10:05:20.781Z,16.90
2023-01-27T10:08:40.220Z,14.13
2023-01-27T10:11:19.900Z,16.23
2023-01-27T10:14:06.758Z,17.80
2023-01-27T10:17:07.973Z,18.17
2023-01-27T10:19:55.823Z,13.02
2023-01-27T10:22:37.440Z,15.57
2023-01-27T10:25:24.100Z,14.73
2023-01-27T10:27:58.604Z,16.10
2023-01-27T10:35:48.903Z,17.77
2023-01-27T10:38:33.297Z,13.80
2023-01-27T10:41:12.851Z,10.60
2023-01-27T10:44:01.597Z,20.88
2023-01-27T10:46:43.145Z,18.27
2023-01-27T10:49:23.301Z,13.40
2023-01-27T10:51:58.681Z,14.75
2023-01-27T10:54:36.961Z,14.10
2023-01-27T10:57:11.355Z,12.90
2023-01-27T11:00:10.898Z,12.38
2023-01-27T11:02:45.722Z,15.55
2023-01-27T11:05:22.035Z,16.02
2023-01-27T11:07:59.577Z,15.50
2023-01-27T11:10:37.433Z,12.15
2023-01-27T11:13:08.032Z,16.85
2023-01-27T11:15:38.917Z,18.83
2023-01-27T11:18:15.933Z,16.40
2023-01-27T11:20:48.025Z,15.48
2023-01-27T11:23:20.656Z,16.55
2023-01-27T11:25:56.923Z,13.45
2023-01-27T11:28:33.908Z,10.88
2023-01-27T11:31:15.096Z,12.25
2023-01-27T11:33:58.047Z,15.48
2023-01-27T11:36:26.881Z,11.13
2023-01-27T11:38:57.982Z,15.00
2023-01-27T11:41:26.952Z,8.27
2023-01-27T11:43:55.272Z,8.63
2023-01-27T11:46:25.791Z,6.65
2023-01-27T11:48:58.628Z,8.68
2023-01-27T11:51:33.400Z,7.22
2023-01-27T11:54:10.991Z,11.52
2023-01-27T11:56:40.694Z,8.65
2023-01-27T11:59:14.733Z,9.68
2023-01-27T12:01:50.826Z,7.63
2023-01-27T12:04:45.257Z,8.07
2023-01-27T12:07:20.302Z,11.17
2023-01-27T12:09:48.742Z,13.07
2023-01-27T12:12:26.284Z,5.43
2023-01-27T12:14:57.739Z,8.82
2023-01-27T12:17:34.698Z,7.25
2023-01-27T12:20:09.626Z,7.40
2023-01-27T12:22:41.119Z,4.80
2023-01-27T12:25:20.911Z,3.70
2023-01-27T12:27:53.680Z,4.45
2023-01-27T12:30:25.801Z,2.08
2023-01-27T12:32:56.566Z,3.10
2023-01-27T12:35:29.038Z,2.45
2023-01-27T12:38:02.065Z,1.75
2023-01-27T12:40:33.268Z,1.83
2023-01-27T12:43:12.715Z,1.73
2023-01-27T12:45:43.300Z,2.80
2023-01-27T12:48:23.067Z,2.08
2023-01-27T12:51:07.805Z,3.17
2023-01-27T12:53:36.053Z,2.55
2023-01-27T12:56:14.536Z,3.67
2023-01-27T12:58:45.373Z,3.90
2023-01-27T13:01:27.236Z,2.25
2023-01-27T13:04:01.343Z,2.72
2023-01-27T13:06:42.124Z,6.00
2023-01-27T13:09:28.736Z,2.33
2023-01-27T13:12:00.944Z,1.85
2023-01-27T13:14:31.733Z,1.95
2023-01-27T13:17:00.083Z,3.05
2023-01-27T13:19:44.177Z,5.10
2023-01-27T13:22:20.726Z,2.67
2023-01-27T13:24:52.936Z,1.55
2023-01-27T13:27:23.035Z,1.33
2023-01-27T13:30:04.493Z,1.23
2023-01-27T13:32:37.876Z,1.27
2023-01-27T13:35:19.890Z,1.30
2023-01-27T13:38:03.114Z,1.92
2023-01-27T13:40:36.183Z,1.30
2023-01-27T13:43:14.628Z,2.72
2023-01-27T13:45:49.020Z,2.03
2023-01-27T13:48:23.437Z,3.15
2023-01-27T13:51:04.399Z,5.18
2023-01-27T13:53:33.076Z,6.40
2023-01-27T13:56:18.495Z,2.33
2023-01-27T13:59:01.314Z,2.17
2023-01-27T14:01:43.825Z,1.77
2023-01-27T14:04:29.908Z,2.90
2023-01-27T14:07:13.325Z,2.10
2023-01-27T14:09:55.517Z,1.90
2023-01-27T14:12:39.490Z,1.33
2023-01-27T14:15:24.221Z,2.90
2023-01-27T14:18:00.549Z,2.58
2023-01-27T14:21:03.726Z,1.83
2023-01-27T14:23:49.235Z,1.77
2023-01-27T14:26:37.196Z,2.40
2023-01-27T14:29:20.250Z,2.58
2023-01-27T14:31:59.114Z,1.95
2023-01-27T14:34:55.084Z,5.13
2023-01-27T14:37:31.391Z,1.70
2023-01-27T14:40:17.479Z,2.30
2023-01-27T14:43:01.849Z,1.80
2023-01-27T14:45:35.597Z,0.65
2023-01-27T14:48:16.349Z,0.73
2023-01-27T14:50:53.360Z,0.90
2023-01-27T14:53:44.515Z,1.40
2023-01-27T14:56:24.912Z,2.03
2023-01-27T14:59:05.468Z,1.40
2023-01-27T15:01:45.234Z,0.98
2023-01-27T15:04:37.620Z,0.75
2023-01-27T15:07:17.050Z,1.08
2023-01-27T15:10:21.644Z,6.30
2023-01-27T15:13:39.332Z,0.98
2023-01-27T15:16:30.833Z,1.23
2023-01-27T15:19:29.359Z,1.23
2023-01-27T15:22:41.966Z,2.45
2023-01-27T15:25:33.215Z,0.93
2023-01-27T15:28:02.958Z,2.58
2023-01-27T15:30:34.904Z,4.00
2023-01-27T15:33:03.968Z,1.25
2023-01-27T15:35:41.072Z,3.25
2023-01-27T15:38:35.701Z,3.33
2023-01-27T15:41:10.808Z,1.42
2023-01-27T15:43:44.027Z,1.15
2023-01-27T15:46:34.261Z,1.33
2023-01-27T15:49:05.013Z,1.30
2023-01-27T15:51:38.475Z,2.20
2023-01-27T15:54:12.579Z,2.47
2023-01-27T15:56:52.153Z,2.03
2023-01-27T15:59:25.996Z,1.30
2023-01-27T16:02:17.532Z,1.45
2023-01-27T16:04:53.509Z,0.98
2023-01-27T16:07:29.700Z,0.73
2023-01-27T16:09:59.820Z,0.88
2023-01-27T16:12:39.493Z,1.75
2023-01-27T16:15:35.461Z,0.80
2023-01-27T16:18:27.944Z,1.25
2023-01-27T16:21:03.178Z,1.20
2023-01-27T16:23:44.001Z,1.08
2023-01-27T16:26:32.737Z,1.35
2023-01-27T16:29:30.988Z,1.42
2023-01-27T16:32:07.633Z,0.80
2023-01-27T16:34:42.768Z,1.27
2023-01-27T16:37:24.801Z,1.65
2023-01-27T16:40:01.978Z,0.65
2023-01-27T16:42:34.956Z,0.65
2023-01-27T16:45:17.719Z,1.77
2023-01-27T16:47:51.009Z,0.90
2023-01-27T16:50:39.111Z,1.17
2023-01-27T16:53:15.064Z,2.28
2023-01-27T16:55:43.757Z,0.85
2023-01-27T16:58:24.398Z,1.00
2023-01-27T17:00:55.574Z,0.60
2023-01-27T17:03:37.261Z,0.85
2023-01-27T17:06:14.436Z,0.60
2023-01-27T17:08:46.023Z,2.20
2023-01-27T17:11:25.292Z,1.13
2023-01-27T17:14:01.292Z,0.52
2023-01-27T17:16:34.112Z,0.82
2023-01-27T17:19:15.712Z,1.02
2023-01-27T17:21:50.393Z,3.67
2023-01-27T17:26:56.895Z,0.60
2023-01-27T17:29:33.146Z,0.82
2023-01-27T17:32:02.155Z,1.48
2023-01-27T17:34:31.085Z,1.48
2023-01-27T17:37:13.432Z,1.48
2023-01-27T17:39:42.064Z,1.60
2023-01-27T17:42:16.795Z,1.85
2023-01-27T17:44:45.552Z,1.65
2023-01-27T17:47:16.069Z,3.78
2023-01-27T17:49:45.584Z,2.10
2023-01-27T17:52:20.887Z,2.17
2023-01-27T17:54:51.409Z,4.35
2023-01-27T17:57:23.366Z,3.22
2023-01-27T18:00:01.485Z,4.35
2023-01-27T18:02:32.863Z,3.92
2023-01-27T18:05:05.666Z,3.63
2023-01-27T18:07:35.406Z,3.75
2023-01-27T18:10:24.566Z,4.55
2023-01-27T18:12:53.088Z,5.10
2023-01-27T18:15:40.806Z,6.47
2023-01-27T18:18:25.586Z,7.35
2023-01-27T18:21:06.421Z,7.55
2023-01-27T18:23:38.636Z,4.35
2023-01-27T18:26:14.897Z,3.65
2023-01-27T18:28:45.410Z,2.60
2023-01-27T18:31:18.386Z,3.47
2023-01-27T18:33:47.295Z,6.78
2023-01-27T18:36:24.647Z,5.65
2023-01-27T18:38:54.409Z,6.03
2023-01-27T18:41:28.961Z,9.85
2023-01-27T18:46:26.973Z,13.13
2023-01-27T18:48:56.616Z,5.28
2023-01-27T18:51:25.090Z,3.92
2023-01-27T18:53:54.726Z,2.47
2023-01-27T18:56:23.229Z,3.40
2023-01-27T18:58:54.031Z,4.10
2023-01-27T19:01:24.899Z,2.92
2023-01-27T19:03:57.135Z,1.70
2023-01-27T19:06:26.577Z,4.35
2023-01-27T19:08:56.117Z,4.90
2023-01-27T19:11:24.649Z,3.33
2023-01-27T19:13:52.843Z,2.35
2023-01-27T19:16:21.278Z,4.13
2023-01-27T19:18:49.967Z,3.40
2023-01-27T19:21:18.367Z,2.95
2023-01-27T19:23:49.309Z,3.25
2023-01-27T19:26:20.792Z,3.58
2023-01-27T19:28:53.231Z,6.80
2023-01-27T19:31:22.608Z,3.88
2023-01-27T19:33:51.214Z,2.72
2023-01-27T19:36:26.097Z,3.88
2023-01-27T19:39:00.837Z,6.80
2023-01-27T19:41:30.462Z,3.17
2023-01-27T19:43:58.921Z,4.13
2023-01-27T19:46:27.699Z,5.32
2023-01-27T19:48:55.905Z,2.58
2023-01-27T19:51:24.568Z,2.92
2023-01-27T19:53:53.048Z,5.32
2023-01-27T19:56:24.151Z,4.13
2023-01-27T19:58:54.830Z,3.70
2023-01-27T20:01:26.853Z,5.28
2023-01-27T20:03:55.889Z,4.95
2023-01-27T20:06:26.616Z,3.72
2023-01-27T20:08:56.812Z,4.50
2023-01-27T20:11:35.383Z,8.07
2023-01-27T20:14:08.603Z,6.72
2023-01-27T20:16:37.237Z,5.68
2023-01-27T20:19:05.565Z,6.05
2023-01-27T20:21:34.484Z,7.28
2023-01-27T20:24:03.571Z,10.15
2023-01-27T20:26:32.551Z,24.40
2023-01-27T20:29:01.300Z,15.63
2023-01-27T20:31:31.007Z,14.93
2023-01-27T20:34:00.790Z,24.55
2023-01-27T20:36:29.002Z,11.98
2023-01-27T20:38:57.216Z,13.63
2023-01-27T20:41:26.104Z,10.88
2023-01-27T20:44:00.245Z,12.77
2023-01-27T20:46:31.005Z,8.80
2023-01-27T20:49:00.317Z,12.48
2023-01-27T20:51:28.683Z,11.23
2023-01-27T20:53:58.062Z,21.10
2023-01-27T20:56:26.549Z,12.27
2023-01-27T20:58:55.187Z,4.57
2023-01-27T21:01:25.150Z,6.00
2023-01-27T21:03:54.876Z,5.38
2023-01-27T21:06:23.846Z,6.57
2023-01-27T21:08:52.357Z,8.27
2023-01-27T21:11:21.529Z,6.75
2023-01-27T21:13:50.249Z,6.80
2023-01-27T21:16:18.770Z,5.25
2023-01-27T21:18:47.419Z,5.85
2023-01-27T21:21:24.012Z,10.25
2023-01-27T21:23:52.805Z,5.10
2023-01-27T21:26:21.464Z,4.30
2023-01-27T21:28:50.133Z,8.57
2023-01-27T21:31:22.210Z,4.65
2023-01-27T21:33:51.096Z,4.38
2023-01-27T21:36:20.674Z,5.00
2023-01-27T21:38:50.403Z,5.32
2023-01-27T21:41:45.763Z,4.22
2023-01-27T21:47:14.663Z,4.65
2023-01-27T21:50:04.286Z,4.03
2023-01-27T21:52:39.041Z,7.05
2023-01-27T21:55:10.267Z,5.97
2023-01-27T21:57:38.858Z,7.68
2023-01-27T22:00:10.352Z,3.85
2023-01-27T22:02:41.851Z,6.82
2023-01-27T22:05:11.739Z,6.05
2023-01-27T22:07:41.671Z,3.60
2023-01-27T22:10:16.071Z,3.58
2023-01-27T22:12:44.911Z,6.00
2023-01-27T22:15:15.842Z,4.70
2023-01-27T22:17:45.067Z,3.92
2023-01-27T22:20:15.322Z,4.38
2023-01-27T22:22:46.286Z,4.00
2023-01-27T22:25:17.141Z,3.78
2023-01-27T22:27:46.943Z,4.47
2023-01-27T22:30:17.603Z,5.75
2023-01-27T22:32:46.884Z,9.40
2023-01-27T22:35:17.729Z,5.40
2023-01-27T22:37:49.041Z,7.18
2023-01-27T22:40:18.266Z,5.63
2023-01-27T22:42:48.532Z,8.98
2023-01-27T22:45:17.749Z,7.03
2023-01-27T22:47:46.346Z,4.90
2023-01-27T22:50:14.634Z,7.47
2023-01-27T22:52:43.177Z,4.85
2023-01-27T22:55:14.371Z,4.88
2023-01-27T22:57:45.416Z,10.85
2023-01-27T23:00:14.594Z,5.18
2023-01-27T23:02:43.184Z,5.80
2023-01-27T23:05:12.250Z,6.47
2023-01-27T23:07:40.969Z,4.22
2023-01-27T23:10:12.324Z,5.38
2023-01-27T23:12:40.655Z,3.53
2023-01-27T23:15:10.026Z,3.35
2023-01-27T23:17:38.467Z,3.17
2023-01-27T23:20:08.779Z,5.10
2023-01-27T23:22:37.300Z,3.67
2023-01-27T23:25:06.688Z,4.45
2023-01-27T23:27:36.781Z,4.03
2023-01-27T23:30:08.999Z,4.00
2023-01-27T23:32:38.049Z,3.33
2023-01-27T23:35:07.163Z,3.83
2023-01-27T23:37:36.019Z,5.40
2023-01-27T23:40:04.821Z,4.40
2023-01-27T23:42:33.557Z,6.30
2023-01-27T23:45:03.188Z,6.20
2023-01-27T23:47:31.853Z,4.43
2023-01-27T23:50:00.042Z,4.15
2023-01-27T23:52:30.208Z,5.07
2023-01-27T23:54:58.680Z,4.00
2023-01-27T23:57:27.163Z,3.40
2023-01-27T23:59:55.666Z,4.00
